Time;durP1;ratioP1;P1;durP2;ratioP2;P2;SDS_P1;SDS_P2;PMS_P1;PMS_P2;Temp;Humidity;BMP_temperature;BMP_pressure;BME280_temperature;BME280_humidity;BME280_pressure;Samples;Min_cycle;Max_cycle;Signal;HPM_P1;HPM_P2
2023/12/16 00:01:18;;;;;;;3.60;2.63;;;10.60;80.40;;;;;;4977830;28;20355;-75
2023/12/16 00:03:43;;;;;;;4.70;2.95;;;10.60;80.40;;;;;;4994546;28;20461;-77
2023/12/16 00:06:09;;;;;;;3.78;2.55;;;10.60;80.40;;;;;;4993766;28;20035;-76
2023/12/16 00:08:35;;;;;;;4.07;2.50;;;10.60;80.40;;;;;;4993862;28;20038;-76
2023/12/16 00:11:02;;;;;;;4.90;2.80;;;10.60;80.40;;;;;;4977241;28;20030;-76
2023/12/16 00:13:27;;;;;;;4.38;2.55;;;10.60;80.40;;;;;;4977524;28;20027;-75
2023/12/16 00:15:53;;;;;;;3.75;2.67;;;10.60;80.40;;;;;;4977463;28;20031;-76
2023/12/16 00:18:19;;;;;;;3.67;2.60;;;10.60;80.40;;;;;;4977579;28;20030;-76
2023/12/16 00:20:46;;;;;;;4.20;2.63;;;10.60;80.40;;;;;;4977568;28;20034;-76
2023/12/16 00:23:12;;;;;;;4.30;2.78;;;10.60;80.40;;;;;;4993550;28;20045;-76
2023/12/16 00:25:37;;;;;;;4.43;2.70;;;10.60;80.40;;;;;;4977308;28;20379;-76
2023/12/16 00:28:03;;;;;;;4.38;2.53;;;10.60;80.40;;;;;;4994481;28;20399;-77
2023/12/16 00:30:29;;;;;;;4.03;2.53;;;10.60;80.40;;;;;;4993424;28;20034;-76
2023/12/16 00:32:54;;;;;;;4.50;2.78;;;10.60;80.40;;;;;;4993141;28;20035;-77
2023/12/16 00:35:20;;;;;;;4.72;2.67;;;10.60;80.40;;;;;;4977272;28;20053;-77
2023/12/16 00:37:46;;;;;;;4.97;2.67;;;10.50;80.30;;;;;;4993093;28;20038;-76
2023/12/16 00:40:12;;;;;;;4.80;2.55;;;10.60;80.40;;;;;;4993363;28;20037;-76
2023/12/16 00:42:38;;;;;;;4.10;2.40;;;10.60;80.30;;;;;;4976963;28;20042;-76
2023/12/16 00:45:04;;;;;;;4.03;2.35;;;10.50;80.30;;;;;;4993119;28;20026;-77
2023/12/16 00:47:30;;;;;;;3.80;2.47;;;10.50;80.30;;;;;;4993176;28;20035;-76
2023/12/16 00:49:55;;;;;;;3.78;2.60;;;10.50;80.30;;;;;;4993174;28;20092;-76
2023/12/16 00:52:22;;;;;;;4.72;2.42;;;10.50;80.30;;;;;;4977416;28;20043;-77
2023/12/16 00:54:47;;;;;;;4.38;2.50;;;10.50;80.30;;;;;;4977409;28;20114;-76
2023/12/16 00:57:13;;;;;;;3.00;2.10;;;10.50;80.30;;;;;;4992872;28;20554;-76
2023/12/16 00:59:39;;;;;;;3.97;2.60;;;10.50;80.60;;;;;;4992586;28;20398;-76
2023/12/16 01:02:05;;;;;;;4.20;2.47;;;10.50;80.30;;;;;;4992698;28;20113;-76
2023/12/16 01:04:30;;;;;;;4.20;2.17;;;10.50;80.30;;;;;;4976724;28;20460;-77
2023/12/16 01:06:56;;;;;;;3.40;2.08;;;10.60;80.40;;;;;;4992552;28;20050;-76
2023/12/16 01:09:24;;;;;;;3.53;2.22;;;10.50;80.30;;;;;;4976702;28;20080;-76
2023/12/16 01:11:50;;;;;;;3.17;2.20;;;10.50;80.40;;;;;;4976523;28;20042;-76
2023/12/16 01:14:16;;;;;;;4.15;2.60;;;10.50;80.50;;;;;;4993130;28;20034;-76
2023/12/16 01:16:42;;;;;;;3.15;1.90;;;10.50;80.40;;;;;;4993794;28;20023;-74
2023/12/16 01:19:07;;;;;;;3.47;2.38;;;10.50;80.40;;;;;;4977042;28;20353;-76
2023/12/16 01:21:40;;;;;;;3.50;2.33;;;10.50;80.40;;;;;;4992523;28;20475;-76
2023/12/16 01:24:06;;;;;;;3.45;2.17;;;10.50;80.40;;;;;;4977322;28;20354;-75
2023/12/16 01:26:32;;;;;;;3.03;1.80;;;10.50;80.30;;;;;;4993256;28;20040;-76
2023/12/16 01:28:58;;;;;;;2.88;1.98;;;10.50;80.30;;;;;;4976537;28;20062;-74
2023/12/16 01:31:23;;;;;;;3.38;2.20;;;10.50;80.40;;;;;;4992431;28;20030;-76
2023/12/16 01:33:49;;;;;;;4.00;2.10;;;10.50;80.40;;;;;;4976405;28;20067;-76
2023/12/16 01:36:15;;;;;;;3.30;1.95;;;10.50;80.30;;;;;;4976056;28;20506;-76
2023/12/16 01:38:41;;;;;;;3.60;2.30;;;10.50;80.40;;;;;;4993013;28;20027;-76
2023/12/16 01:41:06;;;;;;;3.53;2.20;;;10.50;80.40;;;;;;4996423;28;20121;-76
2023/12/16 01:43:32;;;;;;;3.03;2.20;;;10.50;80.40;;;;;;4996538;28;20034;-76
2023/12/16 01:46:03;;;;;;;3.25;1.90;;;10.50;80.40;;;;;;4980121;28;20415;-76
2023/12/16 01:48:30;;;;;;;4.32;2.33;;;10.50;80.40;;;;;;4996606;28;20039;-76
2023/12/16 01:50:57;;;;;;;4.20;2.10;;;10.50;81.00;;;;;;4996349;28;20066;-76
2023/12/16 01:53:23;;;;;;;3.55;2.20;;;10.50;80.40;;;;;;4980703;28;20084;-76
2023/12/16 01:55:48;;;;;;;3.10;1.90;;;10.50;80.40;;;;;;4996078;28;20117;-76
2023/12/16 01:58:15;;;;;;;2.33;1.88;;;10.50;80.40;;;;;;4980854;28;20121;-76
2023/12/16 02:00:42;;;;;;;3.53;2.15;;;10.50;80.40;;;;;;4979762;28;20030;-73
2023/12/16 02:03:08;;;;;;;3.97;2.40;;;10.50;80.40;;;;;;4996263;28;20497;-76
2023/12/16 02:05:33;;;;;;;2.65;1.95;;;10.50;80.40;;;;;;4980083;28;20041;-76
2023/12/16 02:07:59;;;;;;;3.75;1.92;;;10.50;80.40;;;;;;4996128;28;20046;-76
2023/12/16 02:10:25;;;;;;;3.38;2.03;;;10.50;80.40;;;;;;4995828;28;20027;-76
2023/12/16 02:12:51;;;;;;;3.00;1.95;;;10.50;80.40;;;;;;4979782;28;20072;-76
2023/12/16 02:15:16;;;;;;;4.03;1.70;;;10.50;80.40;;;;;;4996068;28;20065;-76
2023/12/16 02:17:42;;;;;;;2.63;1.75;;;10.40;80.40;;;;;;4997418;28;20093;-75
2023/12/16 02:20:08;;;;;;;1.98;1.70;;;10.50;80.40;;;;;;4996093;28;20031;-75
2023/12/16 02:22:34;;;;;;;3.38;1.90;;;10.40;80.40;;;;;;4980369;28;20125;-75
2023/12/16 02:25:00;;;;;;;3.50;2.08;;;10.40;80.40;;;;;;4979389;28;20459;-76
2023/12/16 02:27:26;;;;;;;2.22;1.85;;;10.40;80.40;;;;;;4996532;28;20077;-76
2023/12/16 02:29:52;;;;;;;3.00;2.10;;;10.40;80.40;;;;;;4996497;28;20066;-76
2023/12/16 02:32:17;;;;;;;4.20;2.10;;;10.40;80.40;;;;;;4979373;28;20034;-75
2023/12/16 02:34:43;;;;;;;2.30;1.52;;;10.40;80.40;;;;;;4979359;28;20037;-76
2023/12/16 02:37:09;;;;;;;3.88;2.03;;;10.40;80.40;;;;;;4979282;28;20042;-76
2023/12/16 02:39:35;;;;;;;2.80;2.00;;;10.40;80.40;;;;;;4979339;28;20033;-76
2023/12/16 02:42:01;;;;;;;3.05;1.90;;;10.40;80.40;;;;;;4995409;28;20401;-76
2023/12/16 02:44:26;;;;;;;2.92;2.00;;;10.40;80.40;;;;;;4995307;28;20038;-75
2023/12/16 02:46:52;;;;;;;2.65;1.60;;;10.40;80.40;;;;;;4995565;28;20038;-75
2023/12/16 02:49:18;;;;;;;2.65;1.80;;;10.40;80.40;;;;;;4978907;28;20038;-76
2023/12/16 02:51:44;;;;;;;2.75;1.90;;;10.40;80.40;;;;;;4980114;28;20459;-76
2023/12/16 02:54:09;;;;;;;3.05;1.88;;;10.40;80.40;;;;;;4979408;28;20085;-76
2023/12/16 02:56:35;;;;;;;3.38;2.03;;;10.40;80.40;;;;;;4978725;28;20039;-76
2023/12/16 02:59:01;;;;;;;2.67;1.90;;;10.40;80.50;;;;;;4995223;28;20436;-75
2023/12/16 03:01:27;;;;;;;2.83;1.77;;;10.30;80.40;;;;;;4994865;28;20110;-76
2023/12/16 03:03:53;;;;;;;4.13;2.13;;;10.30;80.40;;;;;;4995029;28;20040;-77
2023/12/16 03:06:18;;;;;;;2.28;1.65;;;10.30;80.40;;;;;;4994861;28;20057;-76
2023/12/16 03:08:45;;;;;;;2.42;1.80;;;10.30;80.40;;;;;;4978604;28;20475;-76
2023/12/16 03:11:11;;;;;;;3.28;1.70;;;10.30;80.40;;;;;;4995116;28;20038;-75
2023/12/16 03:13:37;;;;;;;2.92;1.88;;;10.30;80.40;;;;;;4978954;28;20100;-75
2023/12/16 03:16:03;;;;;;;2.83;1.90;;;10.30;80.40;;;;;;4978925;28;20035;-76
2023/12/16 03:18:29;;;;;;;2.67;1.70;;;10.30;80.40;;;;;;4978749;28;20029;-76
2023/12/16 03:20:55;;;;;;;3.17;1.80;;;10.20;80.40;;;;;;4978895;28;20065;-76
2023/12/16 03:23:21;;;;;;;3.55;2.17;;;10.30;80.40;;;;;;4994820;28;20031;-76
2023/12/16 03:25:47;;;;;;;3.30;1.90;;;10.30;80.50;;;;;;4978283;28;20057;-75
2023/12/16 03:28:12;;;;;;;3.72;1.80;;;10.20;80.40;;;;;;4978275;28;20038;-76
2023/12/16 03:30:40;;;;;;;3.63;2.13;;;10.20;80.40;;;;;;4994447;28;20400;-76
2023/12/16 03:33:09;;;;;;;3.47;2.10;;;10.20;80.40;;;;;;4995771;28;20038;-76
2023/12/16 03:35:35;;;;;;;3.70;2.20;;;10.20;80.40;;;;;;4977912;28;20125;-76
2023/12/16 03:38:01;;;;;;;2.28;1.95;;;10.20;80.40;;;;;;4978294;28;20169;-76
2023/12/16 03:40:27;;;;;;;4.82;2.30;;;10.20;80.40;;;;;;4994722;28;20034;-76
2023/12/16 03:42:53;;;;;;;3.50;2.22;;;10.20;80.40;;;;;;4994774;28;20121;-76
2023/12/16 03:45:19;;;;;;;3.03;2.00;;;10.20;80.40;;;;;;4977893;28;20169;-77
2023/12/16 03:47:44;;;;;;;3.35;1.98;;;10.10;80.40;;;;;;4993915;28;20039;-76
2023/12/16 03:50:10;;;;;;;4.57;2.20;;;10.20;80.50;;;;;;4994518;28;20034;-76
2023/12/16 03:52:36;;;;;;;3.58;2.20;;;10.10;80.40;;;;;;4978115;28;20035;-75
2023/12/16 03:55:02;;;;;;;2.60;1.90;;;10.10;80.40;;;;;;4994411;28;20027;-76
2023/12/16 03:57:29;;;;;;;2.92;2.22;;;10.10;80.40;;;;;;4994036;28;20396;-76
2023/12/16 03:59:58;;;;;;;3.30;2.08;;;10.10;80.40;;;;;;4994756;28;20527;-76
2023/12/16 04:02:24;;;;;;;3.13;2.10;;;10.10;80.40;;;;;;4993621;28;20035;-76
2023/12/16 04:04:50;;;;;;;3.10;2.17;;;10.10;80.40;;;;;;4993692;28;20056;-76
2023/12/16 04:07:16;;;;;;;3.50;2.40;;;10.00;80.40;;;;;;4977443;28;20481;-76
2023/12/16 04:09:41;;;;;;;3.20;2.20;;;10.10;80.40;;;;;;4995424;28;20027;-76
2023/12/16 04:12:08;;;;;;;4.78;2.50;;;10.00;80.40;;;;;;4977592;28;20038;-76
2023/12/16 04:14:40;;;;;;;3.28;2.10;;;10.00;80.40;;;;;;4977592;28;20055;-76
2023/12/16 04:17:06;;;;;;;4.15;2.45;;;10.00;80.40;;;;;;4993668;28;20057;-76
2023/12/16 04:19:32;;;;;;;3.80;2.30;;;10.00;80.40;;;;;;4977591;28;20129;-76
2023/12/16 04:21:58;;;;;;;2.75;2.00;;;10.00;80.40;;;;;;4977653;28;20518;-76
2023/12/16 04:24:23;;;;;;;4.63;2.42;;;10.00;80.40;;;;;;4993559;28;20042;-76
2023/12/16 04:26:49;;;;;;;4.78;2.42;;;10.00;80.40;;;;;;4977281;28;20137;-76
2023/12/16 04:29:15;;;;;;;2.85;2.08;;;9.90;80.40;;;;;;4977298;28;20093;-75
2023/12/16 04:31:41;;;;;;;3.35;2.00;;;9.90;80.40;;;;;;4977500;28;20031;-76
2023/12/16 04:34:08;;;;;;;3.35;2.30;;;9.90;80.40;;;;;;4993518;28;20052;-75
2023/12/16 04:36:34;;;;;;;3.22;2.33;;;9.90;80.40;;;;;;4977098;28;20034;-76
2023/12/16 04:39:07;;;;;;;4.40;2.45;;;9.90;80.40;;;;;;4994254;28;20039;-76
2023/12/16 04:41:32;;;;;;;3.70;2.28;;;9.90;80.40;;;;;;4994149;28;20035;-75
2023/12/16 04:43:58;;;;;;;3.45;2.03;;;9.90;80.40;;;;;;4994836;28;20030;-76
2023/12/16 04:46:24;;;;;;;4.20;2.40;;;9.90;80.40;;;;;;4977181;28;20117;-75
2023/12/16 04:48:50;;;;;;;3.30;2.35;;;9.90;80.40;;;;;;4976945;28;20060;-76
2023/12/16 04:51:15;;;;;;;4.18;2.33;;;9.90;80.40;;;;;;4993076;28;20034;-77
2023/12/16 04:53:41;;;;;;;4.55;2.33;;;9.90;80.40;;;;;;4993192;28;20062;-77
2023/12/16 04:56:07;;;;;;;4.30;2.28;;;9.90;80.50;;;;;;4993681;28;20475;-76
2023/12/16 04:58:33;;;;;;;3.38;2.55;;;9.90;80.50;;;;;;4994425;28;20353;-76
2023/12/16 05:00:59;;;;;;;4.45;2.55;;;9.90;80.50;;;;;;4977598;28;20041;-76
2023/12/16 05:03:25;;;;;;;3.40;2.33;;;9.80;80.40;;;;;;4977497;28;20461;-75
2023/12/16 05:05:51;;;;;;;2.80;2.15;;;9.90;80.50;;;;;;4993954;28;20057;-76
2023/12/16 05:08:19;;;;;;;3.97;2.42;;;9.80;80.40;;;;;;4976187;28;20065;-76
2023/12/16 05:10:47;;;;;;;3.30;1.95;;;9.80;80.50;;;;;;4977294;28;20038;-76
2023/12/16 05:13:14;;;;;;;3.70;2.50;;;9.80;80.50;;;;;;4992171;28;20522;-76
2023/12/16 05:15:41;;;;;;;3.20;2.20;;;9.80;80.40;;;;;;4976391;28;20045;-75
2023/12/16 05:18:07;;;;;;;3.85;2.28;;;9.80;80.50;;;;;;4976435;28;20062;-76
2023/12/16 05:20:37;;;;;;;4.45;2.47;;;9.80;80.50;;;;;;4976750;28;20065;-76
2023/12/16 05:23:03;;;;;;;3.45;1.98;;;9.80;80.50;;;;;;4976471;28;20041;-76
2023/12/16 05:25:30;;;;;;;2.88;2.20;;;9.80;80.50;;;;;;4992414;28;20026;-75
2023/12/16 05:27:56;;;;;;;3.45;2.25;;;9.80;80.50;;;;;;4992345;28;20042;-76
2023/12/16 05:30:23;;;;;;;4.82;2.45;;;9.80;80.50;;;;;;4976428;28;20049;-76
2023/12/16 05:32:49;;;;;;;3.83;2.38;;;9.70;80.40;;;;;;4976080;28;20121;-76
2023/12/16 05:35:15;;;;;;;3.95;2.15;;;9.80;80.50;;;;;;4992501;28;20117;-77
2023/12/16 05:37:41;;;;;;;4.15;2.03;;;9.80;80.50;;;;;;4993431;28;20043;-76
2023/12/16 05:40:07;;;;;;;4.03;2.50;;;9.70;80.50;;;;;;4992964;28;20105;-76
2023/12/16 05:42:33;;;;;;;3.47;2.28;;;9.70;80.40;;;;;;4976767;28;20031;-75
2023/12/16 05:44:58;;;;;;;6.18;2.72;;;9.70;80.40;;;;;;4992562;28;20037;-76
2023/12/16 05:47:25;;;;;;;3.05;2.20;;;9.70;80.40;;;;;;4992108;28;20496;-75
2023/12/16 05:49:50;;;;;;;4.00;2.40;;;9.70;81.00;;;;;;4976846;28;20022;-77
2023/12/16 05:52:16;;;;;;;3.33;2.33;;;9.70;80.50;;;;;;4976285;28;20104;-76
2023/12/16 05:54:42;;;;;;;4.50;2.40;;;9.70;80.50;;;;;;4992217;28;20027;-75
2023/12/16 05:57:08;;;;;;;2.85;2.15;;;9.70;80.50;;;;;;4976357;28;20041;-76
2023/12/16 05:59:34;;;;;;;4.85;2.75;;;9.60;80.40;;;;;;4993625;28;20027;-76
2023/12/16 06:02:00;;;;;;;4.03;2.22;;;9.60;80.50;;;;;;4976375;28;20130;-77
2023/12/16 06:04:26;;;;;;;4.35;2.30;;;9.60;80.50;;;;;;4993285;28;20035;-76
2023/12/16 06:06:52;;;;;;;4.50;2.60;;;9.60;80.50;;;;;;4975964;28;20442;-76
2023/12/16 06:09:17;;;;;;;2.65;2.10;;;9.60;80.50;;;;;;4992951;28;20379;-76
2023/12/16 06:11:43;;;;;;;2.95;2.20;;;9.60;80.50;;;;;;4976972;28;20092;-77
2023/12/16 06:14:09;;;;;;;3.55;2.15;;;9.60;80.50;;;;;;4992161;28;20030;-76
2023/12/16 06:16:35;;;;;;;3.03;2.25;;;9.60;80.50;;;;;;4976214;28;20026;-76
2023/12/16 06:19:02;;;;;;;5.28;2.25;;;9.60;80.50;;;;;;4976069;28;20058;-75
2023/12/16 06:21:29;;;;;;;3.33;2.33;;;9.60;80.60;;;;;;4975943;28;20037;-76
2023/12/16 06:23:58;;;;;;;3.70;2.50;;;9.50;80.50;;;;;;4992508;28;20088;-76
2023/12/16 06:26:24;;;;;;;4.65;2.28;;;9.60;80.60;;;;;;4995506;28;20154;-76
2023/12/16 06:28:50;;;;;;;3.50;2.20;;;9.60;80.60;;;;;;4979533;28;20035;-76
2023/12/16 06:31:17;;;;;;;4.50;2.38;;;9.50;80.60;;;;;;4995696;28;20406;-75
2023/12/16 06:33:42;;;;;;;3.60;2.30;;;9.50;80.60;;;;;;4995443;28;20113;-76
2023/12/16 06:36:08;;;;;;;4.20;2.22;;;9.50;80.60;;;;;;4979858;28;20460;-76
2023/12/16 06:38:34;;;;;;;3.45;2.38;;;9.50;80.60;;;;;;4979900;28;20365;-75
2023/12/16 06:41:00;;;;;;;4.15;2.17;;;9.50;80.60;;;;;;4979836;28;20034;-76
2023/12/16 06:43:26;;;;;;;3.40;2.30;;;9.50;80.60;;;;;;4995758;28;20069;-76
2023/12/16 06:45:53;;;;;;;4.30;2.28;;;9.50;80.60;;;;;;4995330;28;20559;-76
2023/12/16 06:48:19;;;;;;;3.75;2.47;;;9.50;80.60;;;;;;4979015;28;20065;-76
2023/12/16 06:50:45;;;;;;;4.60;2.58;;;9.50;80.60;;;;;;4979167;28;20479;-76
2023/12/16 06:53:11;;;;;;;2.55;1.90;;;9.50;80.60;;;;;;4979345;28;20081;-75
2023/12/16 06:55:37;;;;;;;3.50;2.30;;;9.40;80.60;;;;;;4979748;28;20034;-76
2023/12/16 06:58:04;;;;;;;3.75;2.20;;;9.40;80.60;;;;;;4979026;28;20359;-76
2023/12/16 07:00:30;;;;;;;4.50;2.53;;;9.40;81.20;;;;;;4979076;28;20117;-75
2023/12/16 07:02:55;;;;;;;4.45;2.42;;;9.40;80.60;;;;;;4995102;28;20069;-77
2023/12/16 07:05:21;;;;;;;4.70;2.40;;;9.40;80.60;;;;;;4978873;28;20031;-76
2023/12/16 07:07:47;;;;;;;3.92;2.55;;;9.40;80.60;;;;;;4962368;28;20050;-76
2023/12/16 07:10:13;;;;;;;4.35;2.50;;;9.40;80.60;;;;;;4978733;28;20097;-76
2023/12/16 07:12:39;;;;;;;4.07;2.10;;;9.40;80.60;;;;;;4979001;28;20072;-76
2023/12/16 07:15:06;;;;;;;2.92;2.13;;;9.40;80.60;;;;;;4994709;28;20030;-76
2023/12/16 07:17:32;;;;;;;3.85;2.42;;;9.40;80.60;;;;;;4962215;28;20053;-76
2023/12/16 07:19:57;;;;;;;4.18;2.13;;;9.40;80.60;;;;;;4978589;28;20173;-76
2023/12/16 07:22:23;;;;;;;3.20;2.10;;;9.30;80.60;;;;;;4978797;28;20035;-76
2023/12/16 07:24:49;;;;;;;2.40;2.10;;;9.40;80.70;;;;;;4995487;28;20104;-76
2023/12/16 07:27:15;;;;;;;3.13;2.25;;;9.30;80.60;;;;;;4994863;28;20046;-76
2023/12/16 07:29:42;;;;;;;2.97;2.28;;;9.30;80.60;;;;;;4994680;28;20031;-76
2023/12/16 07:32:08;;;;;;;3.78;2.47;;;9.40;80.70;;;;;;4994558;28;20100;-76
2023/12/16 07:34:33;;;;;;;4.05;2.15;;;9.30;80.60;;;;;;4978450;28;20427;-76
2023/12/16 07:36:59;;;;;;;4.03;2.40;;;9.30;80.60;;;;;;4993269;28;20399;-78
2023/12/16 07:39:25;;;;;;;5.20;2.33;;;9.30;80.60;;;;;;4995777;28;20042;-77
2023/12/16 07:41:51;;;;;;;2.97;2.33;;;9.30;80.60;;;;;;4978428;28;20085;-75
2023/12/16 07:44:16;;;;;;;3.83;2.33;;;9.30;80.60;;;;;;4978401;28;20097;-76
2023/12/16 07:46:43;;;;;;;3.85;2.35;;;9.30;80.60;;;;;;4978851;28;20061;-76
2023/12/16 07:49:09;;;;;;;2.95;1.90;;;9.30;80.60;;;;;;4978388;28;20031;-76
2023/12/16 07:51:36;;;;;;;3.78;2.40;;;9.30;80.60;;;;;;4977800;28;20023;-75
2023/12/16 07:54:02;;;;;;;3.38;2.42;;;9.30;80.60;;;;;;4994267;28;20033;-76
2023/12/16 07:56:28;;;;;;;3.50;2.15;;;9.30;80.70;;;;;;4995689;28;20031;-75
2023/12/16 07:58:54;;;;;;;3.78;2.22;;;9.30;80.70;;;;;;4978491;28;20134;-76
2023/12/16 08:01:20;;;;;;;4.55;2.30;;;9.30;80.70;;;;;;4994184;28;20035;-76
2023/12/16 08:03:47;;;;;;;3.72;2.20;;;9.20;80.60;;;;;;4995743;28;20038;-75
2023/12/16 08:06:16;;;;;;;4.35;2.85;;;9.30;80.70;;;;;;4993993;28;20053;-76
2023/12/16 08:08:43;;;;;;;2.63;2.05;;;9.20;80.70;;;;;;4977263;28;20128;-75
2023/12/16 08:11:09;;;;;;;3.78;1.90;;;9.20;80.70;;;;;;4994675;28;20034;-77
2023/12/16 08:13:36;;;;;;;3.58;2.40;;;9.20;80.70;;;;;;4993553;28;20129;-76
2023/12/16 08:16:04;;;;;;;4.45;2.28;;;9.20;80.70;;;;;;4993757;28;20038;-76
2023/12/16 08:18:31;;;;;;;3.50;1.98;;;9.20;80.70;;;;;;4994643;28;20038;-76
2023/12/16 08:20:57;;;;;;;3.85;2.17;;;9.20;80.70;;;;;;4994074;28;20023;-75
2023/12/16 08:23:23;;;;;;;3.17;2.05;;;9.20;80.70;;;;;;4993604;28;20482;-75
2023/12/16 08:25:48;;;;;;;3.67;2.00;;;9.20;80.70;;;;;;4977321;28;20041;-76
2023/12/16 08:28:14;;;;;;;4.95;2.22;;;9.20;80.70;;;;;;4993353;28;20046;-76
2023/12/16 08:30:40;;;;;;;3.15;1.98;;;9.20;80.70;;;;;;4961355;28;20034;-76
2023/12/16 08:33:06;;;;;;;3.80;2.25;;;9.20;80.70;;;;;;4977979;28;20114;-76
2023/12/16 08:35:33;;;;;;;4.03;2.17;;;9.10;80.70;;;;;;4993330;28;20037;-76
2023/12/16 08:38:01;;;;;;;2.88;1.88;;;9.20;80.80;;;;;;4978113;28;20030;-76
2023/12/16 08:40:26;;;;;;;2.97;2.35;;;9.20;80.80;;;;;;4993411;28;20030;-76
2023/12/16 08:42:52;;;;;;;4.30;2.15;;;9.20;80.80;;;;;;4977909;28;20046;-76
2023/12/16 08:45:18;;;;;;;4.18;2.08;;;9.10;80.70;;;;;;4976944;28;20045;-75
2023/12/16 08:47:44;;;;;;;3.60;2.20;;;9.10;80.70;;;;;;4992706;28;20089;-76
2023/12/16 08:50:10;;;;;;;2.33;2.08;;;9.20;80.80;;;;;;4977225;28;20104;-75
2023/12/16 08:52:37;;;;;;;4.20;2.47;;;9.20;80.80;;;;;;4992866;28;20030;-76
2023/12/16 08:55:06;;;;;;;3.28;2.00;;;9.10;80.70;;;;;;4993214;28;20030;-76
2023/12/16 08:57:32;;;;;;;2.90;2.03;;;9.20;80.70;;;;;;4976631;28;20041;-74
2023/12/16 08:59:58;;;;;;;2.03;1.85;;;9.20;80.80;;;;;;4977026;28;20039;-75
2023/12/16 09:02:24;;;;;;;2.97;2.08;;;9.20;80.80;;;;;;4994304;28;20471;-75
2023/12/16 09:04:50;;;;;;;3.35;1.98;;;9.20;80.70;;;;;;4976641;28;20064;-76
2023/12/16 09:07:17;;;;;;;3.22;2.00;;;9.20;80.70;;;;;;4992438;28;20046;-75
2023/12/16 09:09:44;;;;;;;2.65;1.83;;;9.20;80.70;;;;;;4976833;28;20034;-75
2023/12/16 09:12:11;;;;;;;4.82;2.42;;;9.30;80.70;;;;;;4977346;28;20034;-75
2023/12/16 09:14:38;;;;;;;3.22;2.10;;;9.30;80.70;;;;;;4992607;28;20026;-75
2023/12/16 09:17:04;;;;;;;3.72;2.05;;;9.30;80.60;;;;;;4976440;28;20040;-75
2023/12/16 09:19:30;;;;;;;4.05;2.13;;;9.30;80.60;;;;;;4994065;28;20038;-76
2023/12/16 09:21:56;;;;;;;2.70;1.85;;;9.30;80.60;;;;;;4994162;28;20077;-75
2023/12/16 09:24:22;;;;;;;3.00;1.98;;;9.30;80.60;;;;;;4992660;28;20057;-75
2023/12/16 09:26:48;;;;;;;3.47;1.98;;;9.30;80.60;;;;;;4977108;28;20037;-75
2023/12/16 09:29:13;;;;;;;4.28;2.30;;;9.30;80.70;;;;;;4993674;28;20026;-74
2023/12/16 09:31:40;;;;;;;2.53;2.10;;;9.30;80.70;;;;;;4976766;28;20062;-75
2023/12/16 09:34:06;;;;;;;4.32;2.38;;;9.40;80.70;;;;;;4976416;28;20075;-74
2023/12/16 09:36:31;;;;;;;3.95;2.10;;;9.40;80.60;;;;;;4992589;28;20037;-74
2023/12/16 09:38:57;;;;;;;3.40;2.10;;;9.40;80.60;;;;;;4977068;28;20193;-75
2023/12/16 09:41:28;;;;;;;3.58;2.10;;;9.40;80.60;;;;;;4976351;28;20054;-75
2023/12/16 09:43:58;;;;;;;3.53;2.17;;;9.40;80.60;;;;;;4992222;28;20038;-74
2023/12/16 09:46:32;;;;;;;3.00;2.30;;;9.50;81.20;;;;;;4976190;28;20034;-75
2023/12/16 09:49:02;;;;;;;2.42;1.90;;;9.50;80.60;;;;;;4976531;28;20454;-74
2023/12/16 09:51:28;;;;;;;5.03;2.45;;;9.50;80.50;;;;;;4992447;28;20027;-74
2023/12/16 09:53:55;;;;;;;3.22;2.13;;;9.50;80.50;;;;;;4976573;28;20165;-74
2023/12/16 09:56:21;;;;;;;2.83;2.03;;;9.60;80.60;;;;;;4976451;28;20104;-75
2023/12/16 09:58:51;;;;;;;3.70;2.15;;;9.60;80.50;;;;;;4993397;28;20052;-75
2023/12/16 10:01:17;;;;;;;5.38;2.08;;;9.60;80.50;;;;;;4995321;28;20085;-73
2023/12/16 10:03:46;;;;;;;3.47;2.17;;;9.60;80.50;;;;;;4996703;28;20058;-75
2023/12/16 10:06:12;;;;;;;4.03;2.10;;;9.60;80.50;;;;;;4980247;28;20022;-76
2023/12/16 10:08:40;;;;;;;3.60;2.22;;;9.70;80.50;;;;;;4979866;28;20428;-74
2023/12/16 10:11:06;;;;;;;3.67;2.35;;;9.70;80.50;;;;;;4980156;28;20030;-74
2023/12/16 10:13:52;;;;;;;4.45;2.38;;;9.70;80.40;;;;;;4980126;28;20038;-74
2023/12/16 10:16:21;;;;;;;3.42;2.10;;;9.70;80.40;;;;;;4996399;28;20037;-74
2023/12/16 10:18:55;;;;;;;3.28;2.30;;;9.70;80.30;;;;;;4980004;28;20034;-75
2023/12/16 10:21:30;;;;;;;3.88;2.47;;;9.80;80.40;;;;;;4996623;28;20121;-77
2023/12/16 10:23:58;;;;;;;4.30;2.33;;;9.80;80.40;;;;;;4996062;28;20494;-75
2023/12/16 10:26:24;;;;;;;3.83;2.30;;;9.80;80.40;;;;;;4996128;28;20093;-75
2023/12/16 10:28:52;;;;;;;5.82;2.70;;;9.80;80.30;;;;;;4995709;28;20048;-75
2023/12/16 10:31:18;;;;;;;5.88;2.40;;;9.80;80.30;;;;;;4996006;28;20026;-74
2023/12/16 10:33:45;;;;;;;4.10;2.42;;;9.80;80.30;;;;;;4997180;28;20468;-74
2023/12/16 10:36:11;;;;;;;4.45;2.25;;;9.90;80.40;;;;;;4996238;28;20084;-74
2023/12/16 10:38:36;;;;;;;5.13;2.60;;;9.90;80.30;;;;;;4995944;28;20034;-75
2023/12/16 10:41:03;;;;;;;4.72;2.50;;;9.90;80.30;;;;;;4996535;28;20498;-75
2023/12/16 10:43:29;;;;;;;3.60;2.33;;;9.90;80.30;;;;;;4996526;28;20023;-74
2023/12/16 10:45:55;;;;;;;4.50;2.78;;;9.90;80.30;;;;;;4979330;28;20030;-74
2023/12/16 10:48:23;;;;;;;6.10;2.88;;;9.90;80.30;;;;;;4979184;28;20129;-72
2023/12/16 10:50:48;;;;;;;4.07;2.30;;;9.90;80.30;;;;;;4995272;28;20038;-75
2023/12/16 10:53:44;;;;;;;4.70;2.53;;;10.00;80.30;;;;;;4979334;28;20031;-74
2023/12/16 10:56:28;;;;;;;5.88;2.83;;;10.00;80.40;;;;;;4975104;28;20130;-75
2023/12/16 10:59:04;;;;;;;3.72;2.35;;;10.00;80.30;;;;;;4995291;28;20034;-75
2023/12/16 11:01:44;;;;;;;5.40;3.35;;;10.00;80.20;;;;;;4995925;28;20120;-74
2023/12/16 11:04:16;;;;;;;5.22;2.60;;;10.00;80.30;;;;;;4995400;28;20022;-75
2023/12/16 11:07:09;;;;;;;4.00;2.38;;;10.10;80.30;;;;;;4979237;28;20403;-73
2023/12/16 11:09:36;;;;;;;6.00;2.88;;;10.10;80.40;;;;;;4995038;28;20101;-74
2023/12/16 11:12:04;;;;;;;5.82;3.10;;;10.10;80.20;;;;;;4995707;28;20085;-74
2023/12/16 11:14:33;;;;;;;4.88;3.05;;;10.10;80.30;;;;;;4978875;28;20084;-74
2023/12/16 11:17:14;;;;;;;6.00;2.97;;;10.10;80.30;;;;;;4995306;28;20176;-74
2023/12/16 11:19:47;;;;;;;6.78;3.25;;;10.10;80.30;;;;;;4978406;28;20084;-74
2023/12/16 11:22:21;;;;;;;4.72;2.78;;;10.20;80.30;;;;;;4979488;28;20026;-75
2023/12/16 11:24:47;;;;;;;4.00;2.67;;;10.20;80.30;;;;;;4979389;28;20061;-75
2023/12/16 11:27:15;;;;;;;4.70;2.95;;;10.20;80.20;;;;;;4978525;28;20034;-74
2023/12/16 11:29:42;;;;;;;4.43;3.00;;;10.20;80.20;;;;;;4995047;28;20090;-71
2023/12/16 11:32:09;;;;;;;5.35;3.17;;;10.20;80.10;;;;;;4978546;28;20042;-74
2023/12/16 11:34:44;;;;;;;5.80;2.97;;;10.30;80.20;;;;;;4995624;28;20061;-75
2023/12/16 11:37:13;;;;;;;5.30;3.00;;;10.30;80.20;;;;;;4978640;28;20121;-75
2023/12/16 11:39:40;;;;;;;5.13;3.30;;;10.30;80.10;;;;;;4978263;28;20177;-76
2023/12/16 11:42:10;;;;;;;8.32;4.18;;;10.40;80.10;;;;;;4994490;28;20034;-76
2023/12/16 11:44:53;;;;;;;7.78;3.67;;;10.40;80.10;;;;;;4978527;28;20053;-74
2023/12/16 11:47:24;;;;;;;4.57;3.05;;;10.40;80.20;;;;;;4996163;28;20088;-75
2023/12/16 11:49:54;;;;;;;4.95;3.20;;;10.40;80.10;;;;;;4994201;28;20030;-75
2023/12/16 11:52:22;;;;;;;6.75;3.42;;;10.40;80.10;;;;;;4995891;28;20030;-74
2023/12/16 11:54:56;;;;;;;5.05;3.40;;;10.40;80.10;;;;;;4978300;28;20038;-75
2023/12/16 11:57:24;;;;;;;5.60;3.72;;;10.40;80.20;;;;;;4993911;28;20041;-76
2023/12/16 11:59:50;;;;;;;5.70;3.15;;;10.40;80.10;;;;;;4978241;28;20044;-76
2023/12/16 12:02:17;;;;;;;5.72;3.45;;;10.50;80.10;;;;;;4978215;28;20060;-75
2023/12/16 12:04:43;;;;;;;5.28;3.25;;;10.50;80.10;;;;;;4994035;28;20034;-72
2023/12/16 12:07:09;;;;;;;5.32;3.50;;;10.50;80.10;;;;;;4994264;28;20058;-76
2023/12/16 12:09:35;;;;;;;6.18;3.92;;;10.50;80.10;;;;;;4977904;28;20387;-74
2023/12/16 12:12:02;;;;;;;6.20;3.42;;;10.50;80.10;;;;;;4977777;28;20042;-75
2023/12/16 12:14:28;;;;;;;4.88;3.15;;;10.50;80.10;;;;;;4993919;28;20030;-77
2023/12/16 12:16:53;;;;;;;5.30;3.90;;;10.60;80.20;;;;;;4993902;28;20026;-75
2023/12/16 12:19:19;;;;;;;4.85;3.22;;;10.60;80.20;;;;;;4994083;28;20036;-75
2023/12/16 12:21:45;;;;;;;5.72;3.60;;;10.60;80.20;;;;;;4977700;28;20042;-75
2023/12/16 12:24:11;;;;;;;4.93;3.22;;;10.60;80.20;;;;;;4993381;28;20497;-74
2023/12/16 12:26:36;;;;;;;5.68;3.55;;;10.60;80.20;;;;;;4993979;28;20060;-74
2023/12/16 12:29:02;;;;;;;6.68;3.63;;;10.60;80.20;;;;;;4994262;28;20053;-76
2023/12/16 12:31:29;;;;;;;6.47;3.55;;;10.60;80.20;;;;;;4977043;28;20030;-76
2023/12/16 12:33:55;;;;;;;6.97;3.63;;;10.60;80.20;;;;;;4993364;28;20030;-74
2023/12/16 12:36:21;;;;;;;5.93;3.63;;;10.60;80.20;;;;;;4994130;28;20044;-76
2023/12/16 12:38:54;;;;;;;4.78;3.47;;;10.60;80.20;;;;;;4977144;28;20041;-74
2023/12/16 12:41:20;;;;;;;7.30;4.00;;;10.60;80.20;;;;;;4994787;28;20026;-73
2023/12/16 12:43:45;;;;;;;6.75;3.90;;;10.60;80.20;;;;;;4993668;28;20042;-73
2023/12/16 12:46:16;;;;;;;5.65;3.75;;;10.70;80.30;;;;;;4993426;28;20423;-76
2023/12/16 12:48:55;;;;;;;5.28;3.25;;;10.70;80.30;;;;;;4993815;28;20037;-75
2023/12/16 12:51:21;;;;;;;5.32;3.72;;;10.70;80.30;;;;;;4994636;28;20069;-76